createdAt,value
2017-11-09T00:01:34.091Z,97678.98
2017-11-09T00:04:07.385Z,97676.64
2017-11-09T00:06:34.944Z,97677.98
2017-11-09T00:09:02.495Z,97683.87
2017-11-09T00:11:30.053Z,97675.42
2017-11-09T00:13:57.628Z,97679.98
2017-11-09T00:16:25.181Z,97669.95
2017-11-09T00:18:52.745Z,97673.16
2017-11-09T00:21:20.299Z,97677.20
2017-11-09T00:23:47.861Z,97675.96
2017-11-09T00:26:15.423Z,97672.85
2017-11-09T00:28:42.954Z,97673.16
2017-11-09T00:31:10.468Z,97675.87
2017-11-09T00:33:38.405Z,97674.33
2017-11-09T00:36:05.960Z,97675.95
2017-11-09T00:38:33.488Z,97675.36
2017-11-09T00:41:01.368Z,97673.42
2017-11-09T00:43:28.893Z,97671.72
2017-11-09T00:45:56.436Z,97677.02
2017-11-09T00:48:24.143Z,97672.99
2017-11-09T00:50:51.664Z,97672.66
2017-11-09T00:53:19.193Z,97672.44
2017-11-09T00:55:46.923Z,97681.16
2017-11-09T00:58:14.448Z,97678.38
2017-11-09T01:00:41.992Z,97674.77
2017-11-09T01:03:09.639Z,97674.76
2017-11-09T01:05:37.181Z,97677.23
2017-11-09T01:08:04.744Z,97679.22
2017-11-09T01:10:32.483Z,97680.48
2017-11-09T01:13:00.011Z,97686.34
2017-11-09T01:15:27.573Z,97686.16
2017-11-09T01:17:55.167Z,97693.95
2017-11-09T01:20:22.790Z,97690.21
2017-11-09T01:22:50.312Z,97690.48
2017-11-09T01:25:17.864Z,97691.25
2017-11-09T01:27:45.403Z,97692.41
2017-11-09T01:30:12.979Z,97684.47
2017-11-09T01:32:40.945Z,97680.92
2017-11-09T01:35:08.469Z,97682.63
2017-11-09T01:37:35.993Z,97676.81
2017-11-09T01:40:03.726Z,97670.91
2017-11-09T01:42:31.287Z,97669.29
2017-11-09T01:44:58.847Z,97668.20
2017-11-09T01:47:26.583Z,97668.11
2017-11-09T01:49:54.104Z,97672.59
2017-11-09T01:52:21.628Z,97667.03
2017-11-09T01:54:49.408Z,97666.58
2017-11-09T01:57:16.928Z,97671.67
2017-11-09T01:59:44.463Z,97671.29
2017-11-09T02:02:12.271Z,97674.75
2017-11-09T02:04:39.829Z,97673.62
2017-11-09T02:07:07.348Z,97672.18
2017-11-09T02:09:35.136Z,97671.75
2017-11-09T02:12:02.699Z,97670.06
2017-11-09T02:14:30.219Z,97676.78
2017-11-09T02:16:57.932Z,97672.32
2017-11-09T02:19:25.518Z,97671.15
2017-11-09T02:21:53.045Z,97672.55
2017-11-09T02:24:21.006Z,97677.14
2017-11-09T02:26:48.528Z,97678.47
2017-11-09T02:29:16.057Z,97682.45
2017-11-09T02:31:43.900Z,97683.64
2017-11-09T02:34:11.417Z,97685.55
2017-11-09T02:36:38.963Z,97689.03
2017-11-09T02:39:06.783Z,97684.70
2017-11-09T02:41:34.351Z,97683.86
2017-11-09T02:44:01.883Z,97681.00
2017-11-09T02:46:29.747Z,97683.80
2017-11-09T02:48:57.264Z,97679.48
2017-11-09T02:51:24.796Z,97685.47
2017-11-09T02:53:52.548Z,97684.05
2017-11-09T02:56:20.108Z,97685.25
2017-11-09T02:58:47.627Z,97682.05
2017-11-09T03:01:15.337Z,97681.25
2017-11-09T03:03:42.862Z,97682.95
2017-11-09T03:06:10.401Z,97688.25
2017-11-09T03:08:38.004Z,97685.75
2017-11-09T03:11:05.562Z,97691.90
2017-11-09T03:13:33.081Z,97692.17
2017-11-09T03:16:00.993Z,97687.37
2017-11-09T03:18:28.549Z,97684.08
2017-11-09T03:20:56.106Z,97684.03
2017-11-09T03:23:23.887Z,97686.77
2017-11-09T03:25:51.429Z,97683.97
2017-11-09T03:28:18.990Z,97687.00
2017-11-09T03:30:47.984Z,97686.85
2017-11-09T03:33:15.544Z,97696.53
2017-11-09T03:35:43.100Z,97696.36
2017-11-09T03:38:10.966Z,97695.97
2017-11-09T03:40:38.524Z,97695.17
2017-11-09T03:43:06.084Z,97705.67
2017-11-09T03:45:33.647Z,97705.48
2017-11-09T03:48:01.166Z,97707.00
2017-11-09T03:50:28.693Z,97705.83
2017-11-09T03:52:56.710Z,97709.46
2017-11-09T03:55:24.243Z,97714.19
2017-11-09T03:57:51.768Z,97717.35
2017-11-09T04:00:19.484Z,97717.21
2017-11-09T04:02:47.011Z,97716.72
2017-11-09T04:05:14.532Z,97722.79
2017-11-09T04:07:42.125Z,97721.08
2017-11-09T04:10:09.647Z,97724.28
2017-11-09T04:12:37.202Z,97719.50
2017-11-09T04:15:04.775Z,97722.93
2017-11-09T04:17:32.299Z,97722.44
2017-11-09T04:19:59.819Z,97727.10
2017-11-09T04:22:27.384Z,97722.07
2017-11-09T04:24:54.908Z,97721.33
2017-11-09T04:27:22.455Z,97720.16
2017-11-09T04:29:50.210Z,97726.25
2017-11-09T04:32:17.729Z,97726.48
2017-11-09T04:34:45.256Z,97730.55
2017-11-09T04:37:13.101Z,97731.19
2017-11-09T04:39:40.626Z,97727.72
2017-11-09T04:42:08.152Z,97726.98
2017-11-09T04:44:35.860Z,97728.30
2017-11-09T04:47:03.388Z,97730.87
2017-11-09T04:49:30.920Z,97733.30
2017-11-09T04:51:59.764Z,97734.08
2017-11-09T04:54:27.283Z,97735.08
2017-11-09T04:56:54.814Z,97733.19
2017-11-09T04:59:22.567Z,97738.44
2017-11-09T05:01:50.145Z,97748.78
2017-11-09T05:04:17.684Z,97749.56
2017-11-09T05:06:45.446Z,97745.95
2017-11-09T05:09:13.008Z,97751.76
2017-11-09T05:11:41.487Z,97754.55
2017-11-09T05:14:09.046Z,97757.70
2017-11-09T05:16:36.607Z,97761.34
2017-11-09T05:19:04.166Z,97760.00
2017-11-09T05:21:31.725Z,97761.83
2017-11-09T05:23:59.243Z,97763.00
2017-11-09T05:26:26.792Z,97766.72
2017-11-09T05:28:54.505Z,97768.70
2017-11-09T05:31:22.065Z,97772.23
2017-11-09T05:33:49.621Z,97773.42
2017-11-09T05:36:17.359Z,97773.42
2017-11-09T05:38:44.880Z,97776.00
2017-11-09T05:41:12.403Z,97774.39
2017-11-09T05:43:39.972Z,97777.78
2017-11-09T05:46:07.511Z,97784.52
2017-11-09T05:48:35.033Z,97780.38
2017-11-09T05:51:02.823Z,97780.63
2017-11-09T05:53:30.353Z,97782.33
2017-11-09T05:55:57.880Z,97782.45
2017-11-09T05:58:25.436Z,97789.57
2017-11-09T06:00:52.960Z,97789.11
2017-11-09T06:03:20.487Z,97790.02
2017-11-09T06:05:48.095Z,97794.98
2017-11-09T06:08:15.656Z,97800.20
2017-11-09T06:10:43.184Z,97806.89
2017-11-09T06:13:10.772Z,97806.96
2017-11-09T06:15:38.312Z,97809.66
2017-11-09T06:18:05.833Z,97810.62
2017-11-09T06:20:33.653Z,97816.14
2017-11-09T06:23:01.255Z,97816.54
2017-11-09T06:25:28.813Z,97817.62
2017-11-09T06:27:56.638Z,97817.27
2017-11-09T06:30:24.235Z,97821.86
2017-11-09T06:32:51.759Z,97827.53
2017-11-09T06:35:19.567Z,97834.45
2017-11-09T06:37:47.131Z,97827.80
2017-11-09T06:40:14.652Z,97832.12
2017-11-09T06:42:42.483Z,97837.92
2017-11-09T06:45:10.007Z,97842.36
2017-11-09T06:47:37.532Z,97848.83
2017-11-09T06:50:05.192Z,97848.84
2017-11-09T06:52:32.743Z,97850.96
2017-11-09T06:55:00.301Z,97855.92
2017-11-09T06:57:28.044Z,97853.16
2017-11-09T06:59:55.623Z,97855.73
2017-11-09T07:02:23.182Z,97865.49
2017-11-09T07:04:50.741Z,97867.52
2017-11-09T07:07:18.302Z,97867.93
2017-11-09T07:09:45.860Z,97868.23
2017-11-09T07:12:13.419Z,97867.39
2017-11-09T07:14:40.938Z,97870.70
2017-11-09T07:17:08.460Z,97871.69
2017-11-09T07:19:36.383Z,97872.63
2017-11-09T07:22:03.912Z,97875.52
2017-11-09T07:24:31.444Z,97870.89
2017-11-09T07:26:59.017Z,97875.88
2017-11-09T07:29:26.540Z,97878.05
2017-11-09T07:31:54.061Z,97881.83
2017-11-09T07:34:21.859Z,97881.61
2017-11-09T07:36:49.420Z,97885.73
2017-11-09T07:39:16.951Z,97883.53
2017-11-09T07:41:44.517Z,97885.72
2017-11-09T07:44:12.040Z,97880.81
2017-11-09T07:46:39.586Z,97882.63
2017-11-09T07:49:07.334Z,97884.45
2017-11-09T07:51:34.865Z,97883.80
2017-11-09T07:54:02.454Z,97886.83
2017-11-09T07:56:30.484Z,97876.58
2017-11-09T07:58:58.017Z,97876.89
2017-11-09T08:01:25.545Z,97887.86
2017-11-09T08:03:53.129Z,97886.16
2017-11-09T08:06:21.643Z,97888.31
2017-11-09T08:08:49.168Z,97894.37
2017-11-09T08:11:16.831Z,97898.63
2017-11-09T08:13:44.365Z,97902.58
2017-11-09T08:16:11.901Z,97908.69
2017-11-09T08:18:39.482Z,97912.92
2017-11-09T08:21:07.051Z,97912.00
2017-11-09T08:23:34.588Z,97921.14
2017-11-09T08:26:06.380Z,97918.47
2017-11-09T08:28:37.520Z,97925.73
2017-11-09T08:31:06.843Z,97924.10
2017-11-09T08:33:37.000Z,97927.05
2017-11-09T08:36:04.572Z,97933.29
2017-11-09T08:38:32.217Z,97928.80
2017-11-09T08:40:59.781Z,97924.31
2017-11-09T08:43:27.340Z,97922.56
2017-11-09T08:45:55.083Z,97926.70
2017-11-09T08:48:23.484Z,97924.92
2017-11-09T08:50:51.040Z,97929.42
2017-11-09T08:53:18.817Z,97926.85
2017-11-09T08:55:46.363Z,97933.11
2017-11-09T08:58:13.921Z,97938.70
2017-11-09T09:00:41.875Z,97943.23
2017-11-09T09:03:09.396Z,97937.96
2017-11-09T09:05:36.920Z,97937.64
2017-11-09T09:08:04.647Z,97934.36
2017-11-09T09:10:32.166Z,97940.25
2017-11-09T09:12:59.700Z,97942.94
2017-11-09T09:15:27.347Z,97940.89
2017-11-09T09:17:54.871Z,97940.98
2017-11-09T09:23:29.492Z,97947.23
2017-11-09T09:26:12.880Z,97952.03
2017-11-09T09:28:44.953Z,97948.84
2017-11-09T09:31:12.916Z,97952.64
2017-11-09T09:37:01.056Z,97952.51
2017-11-09T09:39:32.548Z,97962.80
2017-11-09T09:42:00.100Z,97962.08
2017-11-09T09:44:27.651Z,97968.52
2017-11-09T09:46:55.177Z,97968.78
2017-11-09T09:49:22.869Z,97974.37
2017-11-09T09:51:50.422Z,97973.77
2017-11-09T09:54:17.981Z,97973.59
2017-11-09T09:56:45.731Z,97977.06
2017-11-09T09:59:13.252Z,97976.41
2017-11-09T10:01:41.786Z,97974.53
2017-11-09T10:04:09.345Z,97979.88
2017-11-09T10:06:36.905Z,97976.73
2017-11-09T10:09:04.464Z,97970.05
2017-11-09T10:11:32.209Z,97973.42
2017-11-09T10:13:59.779Z,97974.47
2017-11-09T10:16:27.305Z,97970.30
2017-11-09T10:18:54.988Z,97965.19
2017-11-09T10:21:22.603Z,97970.00
2017-11-09T10:23:50.140Z,97967.13
2017-11-09T10:26:17.993Z,97971.11
2017-11-09T10:28:45.551Z,97972.89
2017-11-09T10:31:13.120Z,97965.59
2017-11-09T10:33:40.811Z,97959.52
2017-11-09T10:36:08.331Z,97964.42
2017-11-09T10:38:35.843Z,97960.02
2017-11-09T10:41:03.634Z,97958.72
2017-11-09T10:43:31.172Z,97960.23
2017-11-09T10:45:58.697Z,97954.45
2017-11-09T10:48:26.416Z,97951.48
2017-11-09T10:50:53.995Z,97957.06
2017-11-09T10:53:21.552Z,97948.22
2017-11-09T10:55:49.522Z,97949.40
2017-11-09T10:58:17.081Z,97938.69
2017-11-09T11:00:45.386Z,97942.27
2017-11-09T11:03:13.219Z,97946.83
2017-11-09T11:05:40.781Z,97945.70
2017-11-09T11:08:08.341Z,97949.95
2017-11-09T11:10:35.892Z,97947.83
2017-11-09T11:13:03.408Z,97948.23
2017-11-09T11:15:30.933Z,97943.66
2017-11-09T11:17:58.680Z,97939.56
2017-11-09T11:20:26.240Z,97934.42
2017-11-09T11:22:54.604Z,97935.41
2017-11-09T11:25:22.396Z,97938.23
2017-11-09T11:27:50.350Z,97931.70
2017-11-09T11:30:17.948Z,97936.00
2017-11-09T11:32:45.980Z,97932.20
2017-11-09T11:35:13.542Z,97933.72
2017-11-09T11:37:42.004Z,97932.03
2017-11-09T11:40:09.664Z,97934.75
2017-11-09T11:42:37.187Z,97931.00
2017-11-09T11:45:04.718Z,97931.11
2017-11-09T11:47:33.985Z,97934.77
2017-11-09T11:50:01.558Z,97935.06
2017-11-09T11:52:29.076Z,97925.86
2017-11-09T11:54:56.891Z,97926.29
2017-11-09T11:57:24.440Z,97928.33
2017-11-09T11:59:52.004Z,97930.98
2017-11-09T12:02:19.560Z,97927.73
2017-11-09T12:04:47.095Z,97932.25
2017-11-09T12:07:14.615Z,97929.77
2017-11-09T12:09:42.427Z,97938.15
2017-11-09T12:12:13.723Z,97933.41
2017-11-09T12:14:41.245Z,97927.58
2017-11-09T12:17:08.847Z,97921.27
2017-11-09T12:19:36.363Z,97919.77
2017-11-09T12:22:03.921Z,97916.52
2017-11-09T12:24:31.889Z,97917.18
2017-11-09T12:26:59.450Z,97923.34
2017-11-09T12:29:26.971Z,97919.15
2017-11-09T12:31:54.752Z,97926.38
2017-11-09T12:34:22.272Z,97921.77
2017-11-09T12:36:49.792Z,97917.49
2017-11-09T12:39:17.453Z,97919.16
2017-11-09T12:41:45.008Z,97914.06
2017-11-09T12:44:12.573Z,97917.75
2017-11-09T12:46:40.315Z,97921.11
2017-11-09T12:49:07.891Z,97923.67
2017-11-09T12:51:35.450Z,97917.34
2017-11-09T12:54:03.295Z,97917.73
2017-11-09T12:56:30.874Z,97921.21
2017-11-09T12:58:58.434Z,97925.74
2017-11-09T13:01:26.175Z,97930.08
2017-11-09T13:03:53.703Z,97928.80
2017-11-09T13:06:21.236Z,97927.35
2017-11-09T13:08:48.807Z,97936.33
2017-11-09T13:11:16.329Z,97931.69
2017-11-09T13:13:43.891Z,97933.28
2017-11-09T13:16:11.604Z,97929.28
2017-11-09T13:18:39.123Z,97924.21
2017-11-09T13:21:06.643Z,97924.03
2017-11-09T13:23:34.515Z,97932.34
2017-11-09T13:26:03.939Z,97930.23
2017-11-09T13:28:31.503Z,97930.06
2017-11-09T13:30:59.388Z,97934.78
2017-11-09T13:33:26.977Z,97930.17
2017-11-09T13:35:54.507Z,97936.21
2017-11-09T13:38:22.330Z,97934.61
2017-11-09T13:40:49.884Z,97931.23
2017-11-09T13:43:17.472Z,97935.59
2017-11-09T13:45:45.222Z,97934.55
2017-11-09T13:48:12.743Z,97938.02
2017-11-09T13:50:40.297Z,97940.91
2017-11-09T13:53:08.020Z,97941.18
2017-11-09T13:55:35.570Z,97941.70
2017-11-09T13:58:04.052Z,97941.67
2017-11-09T14:00:34.659Z,97939.70
2017-11-09T14:03:02.185Z,97944.98
2017-11-09T14:05:29.736Z,97950.90
2017-11-09T14:07:57.769Z,97947.99
2017-11-09T14:10:25.292Z,97944.61
2017-11-09T14:12:52.824Z,97942.22
2017-11-09T14:15:20.549Z,97947.83
2017-11-09T14:17:48.062Z,97944.22
2017-11-09T14:20:15.871Z,97946.46
2017-11-09T14:22:44.628Z,97944.48
2017-11-09T14:25:13.242Z,97943.92
2017-11-09T14:27:40.883Z,97948.52
2017-11-09T14:30:08.462Z,97947.47
2017-11-09T14:32:36.132Z,97947.92
2017-11-09T14:35:04.530Z,97948.36
2017-11-09T14:37:32.475Z,97947.25
2017-11-09T14:40:00.607Z,97948.01
2017-11-09T14:42:28.383Z,97956.66
2017-11-09T14:44:58.836Z,97957.52
2017-11-09T14:47:26.804Z,97957.63
2017-11-09T14:49:55.388Z,97955.88
2017-11-09T14:52:23.958Z,97962.76
2017-11-09T14:54:51.703Z,97964.45
2017-11-09T14:57:20.732Z,97965.48
2017-11-09T14:59:50.643Z,97967.28
2017-11-09T15:02:18.527Z,97970.25
2017-11-09T15:04:46.374Z,97967.64
2017-11-09T15:07:14.157Z,97965.66
2017-11-09T15:09:41.838Z,97971.34
2017-11-09T15:12:09.381Z,97972.03
2017-11-09T15:14:37.139Z,97974.57
2017-11-09T15:17:05.776Z,97978.18
2017-11-09T15:19:34.224Z,97980.81
2017-11-09T15:22:02.257Z,97980.51
2017-11-09T15:24:30.825Z,97983.30
2017-11-09T15:26:58.456Z,97980.27
2017-11-09T15:29:26.785Z,97990.37
2017-11-09T15:31:54.340Z,97995.28
2017-11-09T15:34:21.917Z,97994.41
2017-11-09T15:36:49.751Z,97996.66
2017-11-09T15:39:17.533Z,98001.16
2017-11-09T15:41:45.088Z,98009.42
2017-11-09T15:44:13.083Z,98007.31
2017-11-09T15:46:43.282Z,98009.20
2017-11-09T15:49:11.655Z,98009.38
2017-11-09T15:51:39.756Z,98009.80
2017-11-09T15:54:08.516Z,98018.53
2017-11-09T15:56:36.292Z,98018.56
2017-11-09T15:59:04.260Z,98018.80
2017-11-09T16:01:31.919Z,98024.31
2017-11-09T16:04:02.233Z,98015.06
2017-11-09T16:06:30.297Z,98022.22
2017-11-09T16:08:58.077Z,98019.86
2017-11-09T16:11:25.936Z,98023.50
2017-11-09T16:13:55.189Z,98020.27
2017-11-09T16:16:23.202Z,98022.80
2017-11-09T16:18:50.865Z,98019.59
2017-11-09T16:21:18.632Z,98025.33
2017-11-09T16:23:46.396Z,98023.00
2017-11-09T16:26:16.236Z,98026.49
2017-11-09T16:28:50.304Z,98028.41
2017-11-09T16:31:18.185Z,98033.81
2017-11-09T16:33:48.421Z,98024.73
2017-11-09T16:36:17.104Z,98034.93
2017-11-09T16:38:44.649Z,98037.05
2017-11-09T16:41:12.543Z,98042.05
2017-11-09T16:43:41.186Z,98048.30
2017-11-09T16:46:08.979Z,98049.94
2017-11-09T16:48:37.418Z,98051.96
2017-11-09T16:51:05.620Z,98059.34
2017-11-09T16:53:34.716Z,98053.41
2017-11-09T16:56:02.359Z,98053.98
2017-11-09T16:58:30.857Z,98057.39
2017-11-09T17:00:59.192Z,98050.75
2017-11-09T17:03:28.207Z,98050.09
2017-11-09T17:05:57.662Z,98057.64
2017-11-09T17:08:26.523Z,98053.95
2017-11-09T17:10:54.089Z,98059.84
2017-11-09T17:13:23.584Z,98071.19
2017-11-09T17:15:51.147Z,98073.66
2017-11-09T17:18:23.823Z,98071.54
2017-11-09T17:20:52.259Z,98075.41
2017-11-09T17:23:19.792Z,98077.17
2017-11-09T17:25:47.345Z,98073.36
2017-11-09T17:28:14.982Z,98080.14
2017-11-09T17:30:42.631Z,98085.95
2017-11-09T17:33:10.321Z,98087.56
2017-11-09T17:35:38.040Z,98094.75
2017-11-09T17:38:05.654Z,98087.70
2017-11-09T17:40:33.301Z,98090.69
2017-11-09T17:43:02.443Z,98092.67
2017-11-09T17:45:29.992Z,98092.36
2017-11-09T17:47:58.224Z,98091.25
2017-11-09T17:50:26.221Z,98085.91
2017-11-09T17:52:54.054Z,98085.12
2017-11-09T17:55:21.818Z,98085.31
2017-11-09T17:57:49.466Z,98089.39
2017-11-09T18:00:18.165Z,98088.28
2017-11-09T18:02:46.357Z,98084.34
2017-11-09T18:05:14.104Z,98082.99
2017-11-09T18:07:41.764Z,98088.42
2017-11-09T18:10:09.630Z,98082.97
2017-11-09T18:12:37.189Z,98086.23
2017-11-09T18:15:05.157Z,98091.66
2017-11-09T18:17:33.025Z,98090.81
2017-11-09T18:20:00.564Z,98089.11
2017-11-09T18:22:28.449Z,98092.89
2017-11-09T18:24:56.320Z,98088.20
2017-11-09T18:27:23.869Z,98095.72
2017-11-09T18:29:51.415Z,98092.41
2017-11-09T18:32:20.249Z,98098.48
2017-11-09T18:34:48.396Z,98099.25
2017-11-09T18:37:16.162Z,98103.48
2017-11-09T18:39:44.244Z,98112.27
2017-11-09T18:42:12.097Z,98110.13
2017-11-09T18:44:40.166Z,98108.02
2017-11-09T18:47:08.751Z,98104.17
2017-11-09T18:49:36.623Z,98105.94
2017-11-09T18:52:04.280Z,98104.16
2017-11-09T18:54:32.367Z,98103.45
2017-11-09T18:57:00.077Z,98104.52
2017-11-09T18:59:30.974Z,98102.13
2017-11-09T19:01:59.076Z,98099.38
2017-11-09T19:04:26.811Z,98095.55
2017-11-09T19:06:54.652Z,98091.81
2017-11-09T19:09:22.620Z,98095.95
2017-11-09T19:11:50.384Z,98101.59
2017-11-09T19:14:18.148Z,98102.92
2017-11-09T19:16:45.848Z,98105.26
2017-11-09T19:19:13.646Z,98091.89
2017-11-09T19:21:41.556Z,98091.86
2017-11-09T19:24:09.724Z,98097.56
2017-11-09T19:26:37.686Z,98100.50
2017-11-09T19:29:05.285Z,98096.88
2017-11-09T19:31:33.520Z,98098.85
2017-11-09T19:34:02.718Z,98096.83
2017-11-09T19:36:30.498Z,98094.83
2017-11-09T19:38:58.487Z,98094.98
2017-11-09T19:41:26.521Z,98096.84
2017-11-09T19:43:54.392Z,98098.17
2017-11-09T19:46:22.695Z,98094.56
2017-11-09T19:48:50.640Z,98104.69
2017-11-09T19:51:18.708Z,98112.41
2017-11-09T19:53:46.982Z,98122.16
2017-11-09T19:56:14.848Z,98124.63
2017-11-09T19:58:43.287Z,98129.40
2017-11-09T20:01:11.806Z,98122.89
2017-11-09T20:03:40.001Z,98124.04
2017-11-09T20:06:08.060Z,98125.27
2017-11-09T20:08:36.349Z,98133.84
2017-11-09T20:11:04.195Z,98132.25
2017-11-09T20:13:33.085Z,98129.50
2017-11-09T20:16:01.053Z,98123.95
2017-11-09T20:18:28.836Z,98112.17
2017-11-09T20:20:56.707Z,98108.58
2017-11-09T20:23:24.775Z,98105.28
2017-11-09T20:25:52.546Z,98098.45
2017-11-09T20:28:20.407Z,98090.92
2017-11-09T20:30:48.355Z,98093.38
2017-11-09T20:33:16.228Z,98098.46
2017-11-09T20:35:44.208Z,98095.67
2017-11-09T20:38:12.372Z,98097.45
2017-11-09T20:40:40.205Z,98094.70
2017-11-09T20:43:07.902Z,98097.38
2017-11-09T20:45:36.129Z,98101.94
2017-11-09T20:48:04.197Z,98108.80
2017-11-09T20:50:32.513Z,98115.14
2017-11-09T20:53:02.427Z,98111.55
2017-11-09T20:55:31.113Z,98108.70
2017-11-09T20:57:58.980Z,98110.79
2017-11-09T21:00:27.205Z,98103.75
2017-11-09T21:02:55.026Z,98109.11
2017-11-09T21:05:22.886Z,98106.62
2017-11-09T21:07:50.754Z,98104.93
2017-11-09T21:10:18.513Z,98102.13
2017-11-09T21:12:46.385Z,98097.45
2017-11-09T21:15:14.631Z,98100.87
2017-11-09T21:17:42.934Z,98101.59
2017-11-09T21:20:10.597Z,98109.39
2017-11-09T21:22:38.468Z,98110.09
2017-11-09T21:25:06.227Z,98107.27
2017-11-09T21:27:33.889Z,98109.81
2017-11-09T21:30:01.628Z,98112.55
2017-11-09T21:32:29.325Z,98118.73
2017-11-09T21:34:57.077Z,98117.50
2017-11-09T21:37:25.045Z,98116.28
2017-11-09T21:39:52.726Z,98115.58
2017-11-09T21:42:20.472Z,98117.97
2017-11-09T21:44:48.137Z,98111.23
2017-11-09T21:47:17.739Z,98110.30
2017-11-09T21:49:47.999Z,98111.52
2017-11-09T21:52:15.639Z,98110.87
2017-11-09T21:54:43.385Z,98107.41
2017-11-09T21:57:11.254Z,98103.97
2017-11-09T21:59:39.035Z,98106.00
2017-11-09T22:02:06.679Z,98103.41
2017-11-09T22:04:34.443Z,98097.95
2017-11-09T22:07:02.308Z,98095.91
2017-11-09T22:09:29.990Z,98105.98
2017-11-09T22:11:57.940Z,98105.38
2017-11-09T22:14:25.600Z,98101.92
2017-11-09T22:16:53.207Z,98106.92
2017-11-09T22:19:20.991Z,98103.17
2017-11-09T22:21:48.688Z,98097.30
2017-11-09T22:24:16.518Z,98094.33
2017-11-09T22:26:44.472Z,98098.42
2017-11-09T22:29:12.058Z,98095.46
2017-11-09T22:31:39.603Z,98095.46
2017-11-09T22:34:07.510Z,98101.70
2017-11-09T22:36:35.170Z,98101.70
2017-11-09T22:39:02.731Z,98103.91
2017-11-09T22:41:30.312Z,98101.44
2017-11-09T22:43:57.859Z,98111.09
2017-11-09T22:46:25.372Z,98113.20
2017-11-09T22:48:53.264Z,98113.48
2017-11-09T22:51:20.783Z,98117.57
2017-11-09T22:53:48.307Z,98114.09
2017-11-09T22:56:16.053Z,98109.81
2017-11-09T22:58:44.511Z,98113.61
2017-11-09T23:01:12.151Z,98109.04
2017-11-09T23:03:39.958Z,98105.48
2017-11-09T23:06:07.475Z,98098.22
2017-11-09T23:08:34.995Z,98097.78
2017-11-09T23:11:02.802Z,98097.87
2017-11-09T23:13:30.332Z,98089.48
2017-11-09T23:15:57.860Z,98088.47
2017-11-09T23:18:25.704Z,98086.57
2017-11-09T23:20:53.227Z,98094.91
2017-11-09T23:23:20.756Z,98093.87
2017-11-09T23:25:48.604Z,98105.83
2017-11-09T23:28:16.166Z,98102.25
2017-11-09T23:30:43.723Z,98097.77
2017-11-09T23:33:11.486Z,98097.16
2017-11-09T23:35:39.045Z,98103.30
2017-11-09T23:38:06.622Z,98101.13
2017-11-09T23:40:34.180Z,98112.38
2017-11-09T23:43:01.699Z,98114.97
2017-11-09T23:45:29.220Z,98118.47
2017-11-09T23:47:57.047Z,98113.66
2017-11-09T23:50:24.605Z,98099.31
2017-11-09T23:52:52.179Z,98105.72
2017-11-09T23:55:19.907Z,98106.67
2017-11-09T23:57:47.435Z,98099.06
